createdAt,value
2018-09-03T00:02:25.034Z,3.26
2018-09-03T00:08:20.012Z,3.21
2018-09-03T00:14:15.030Z,3.5
2018-09-03T00:20:10.049Z,3.23
2018-09-03T00:26:05.026Z,3.39
2018-09-03T00:32:00.044Z,3.27
2018-09-03T00:37:55.043Z,3.22
2018-09-03T00:43:50.064Z,3.22
2018-09-03T00:49:45.074Z,3.3
2018-09-03T00:55:40.086Z,3.66
2018-09-03T01:01:35.059Z,3.78
2018-09-03T01:07:30.048Z,3.33
2018-09-03T01:13:25.077Z,3.57
2018-09-03T01:19:20.080Z,3.65
2018-09-03T01:25:15.162Z,3.57
2018-09-03T01:31:10.094Z,4.01
2018-09-03T01:37:05.082Z,3.92
2018-09-03T01:43:00.090Z,3.2
2018-09-03T01:48:55.098Z,3.85
2018-09-03T01:54:50.124Z,3.62
2018-09-03T02:00:45.116Z,3.75
2018-09-03T02:06:40.123Z,3.89
2018-09-03T02:12:35.097Z,3.75
2018-09-03T02:18:30.117Z,3.86
2018-09-03T02:24:25.178Z,3.72
2018-09-03T02:30:20.141Z,3.8
2018-09-03T02:36:15.137Z,3.92
2018-09-03T02:42:10.140Z,3.77
2018-09-03T02:48:05.133Z,4.07
2018-09-03T02:54:00.172Z,4.27
2018-09-03T02:59:55.148Z,4
2018-09-03T03:05:50.210Z,3.88
2018-09-03T03:11:45.282Z,4.37
2018-09-03T03:17:40.152Z,4.41
2018-09-03T03:23:35.156Z,3.92
2018-09-03T03:29:30.208Z,3.77
2018-09-03T03:35:25.164Z,3.83
2018-09-03T03:41:20.177Z,4.04
2018-09-03T03:47:15.185Z,4.07
2018-09-03T03:53:10.225Z,4.25
2018-09-03T03:59:05.182Z,3.88
2018-09-03T04:05:00.260Z,3.7
2018-09-03T04:10:55.187Z,4.03
2018-09-03T04:16:50.207Z,4.55
2018-09-03T04:22:45.223Z,4.06
2018-09-03T04:28:40.231Z,4.67
2018-09-03T04:34:35.278Z,4.23
2018-09-03T04:40:30.215Z,5
2018-09-03T04:46:25.219Z,4.64
2018-09-03T04:52:20.206Z,4.26
2018-09-03T04:58:15.223Z,4.72
2018-09-03T05:04:10.258Z,4.22
2018-09-03T05:10:05.253Z,4.69
2018-09-03T05:16:00.292Z,4.79
2018-09-03T05:21:55.254Z,4.47
2018-09-03T05:27:50.266Z,5.01
2018-09-03T05:33:45.238Z,5.23
2018-09-03T05:39:40.232Z,5.66
2018-09-03T05:45:35.294Z,5.51
2018-09-03T05:51:30.275Z,5.13
2018-09-03T05:57:25.286Z,5.83
2018-09-03T06:03:20.290Z,5.03
2018-09-03T06:09:15.268Z,5.57
2018-09-03T06:15:10.323Z,5.4
2018-09-03T06:21:05.281Z,6.05
2018-09-03T06:27:00.327Z,6.43
2018-09-03T06:32:55.376Z,6.2
2018-09-03T06:38:50.310Z,5.97
2018-09-03T06:44:45.334Z,6.12
2018-09-03T06:50:40.299Z,7.55
2018-09-03T06:56:35.307Z,7.02
2018-09-03T07:02:30.313Z,7.71
2018-09-03T07:08:25.377Z,10.6
2018-09-03T07:14:20.305Z,12.61
2018-09-03T07:20:15.342Z,9.72
2018-09-03T07:26:10.341Z,9.78
2018-09-03T07:32:05.362Z,9.53
2018-09-03T07:38:00.335Z,9.93
2018-09-03T07:43:55.352Z,9.99
2018-09-03T07:49:50.345Z,9.52
2018-09-03T07:55:45.333Z,7.47
2018-09-03T08:01:40.362Z,7.52
2018-09-03T08:07:35.352Z,7.93
2018-09-03T08:13:30.452Z,7.01
2018-09-03T08:19:25.368Z,6.69
2018-09-03T08:25:20.390Z,6.39
2018-09-03T08:31:15.452Z,6.3
2018-09-03T08:37:10.422Z,5.59
2018-09-03T08:43:05.403Z,4.72
2018-09-03T08:49:00.385Z,4.34
2018-09-03T08:54:55.397Z,3.6
2018-09-03T09:00:50.410Z,3.85
2018-09-03T09:06:45.415Z,3.66
2018-09-03T09:12:40.444Z,3.49
2018-09-03T09:18:35.418Z,3.52
2018-09-03T09:24:30.488Z,2.72
2018-09-03T09:30:25.413Z,3.37
2018-09-03T09:36:20.433Z,2.31
2018-09-03T09:42:15.433Z,3.08
2018-09-03T09:48:10.469Z,2.77
2018-09-03T09:54:05.444Z,3.12
2018-09-03T10:00:00.495Z,3.23
2018-09-03T10:05:55.446Z,2.84
2018-09-03T10:11:50.470Z,3.18
2018-09-03T10:17:45.443Z,3.92
2018-09-03T10:23:40.534Z,2.95
2018-09-03T10:29:35.495Z,2.71
2018-09-03T10:35:30.484Z,3.33
2018-09-03T10:41:25.527Z,3.05
2018-09-03T10:47:20.631Z,2.65
2018-09-03T10:53:15.493Z,2.77
2018-09-03T10:59:10.514Z,3.09
2018-09-03T11:05:05.524Z,2.84
2018-09-03T11:11:00.509Z,2.74
2018-09-03T11:16:55.572Z,2.98
2018-09-03T11:22:50.527Z,3.26
2018-09-03T11:28:45.588Z,3.59
2018-09-03T11:34:40.532Z,3.21
2018-09-03T11:40:35.553Z,3.18
2018-09-03T11:46:30.546Z,2.85
2018-09-03T11:52:25.591Z,2.95
2018-09-03T11:58:20.541Z,3.38
2018-09-03T12:04:15.547Z,2.54
2018-09-03T12:10:10.561Z,2.83
2018-09-03T12:16:05.546Z,3.01
2018-09-03T12:22:00.571Z,2.69
2018-09-03T12:27:55.563Z,2.52
2018-09-03T12:33:50.597Z,2.62
2018-09-03T12:39:45.625Z,2.93
2018-09-03T12:45:40.664Z,2.56
2018-09-03T12:51:35.612Z,2.16
2018-09-03T12:57:30.598Z,2.09
2018-09-03T13:03:25.665Z,2.38
2018-09-03T13:09:20.616Z,1.58
2018-09-03T13:15:15.615Z,1.87
2018-09-03T13:21:10.628Z,1.91
2018-09-03T13:27:05.663Z,2.31
2018-09-03T13:33:00.645Z,2.09
2018-09-03T13:38:55.639Z,2.84
2018-09-03T13:44:50.640Z,2.11
2018-09-03T13:50:45.659Z,2.36
2018-09-03T13:56:40.692Z,2.41
2018-09-03T14:02:35.665Z,2.49
2018-09-03T14:08:30.643Z,2.4
2018-09-03T14:14:25.744Z,2.24
2018-09-03T14:20:20.704Z,2.15
2018-09-03T14:26:15.677Z,2.31
2018-09-03T14:32:10.724Z,1.76
2018-09-03T14:38:05.707Z,1.9
2018-09-03T14:44:00.688Z,1.59
2018-09-03T14:49:55.741Z,1.98
2018-09-03T14:55:50.749Z,1.77
2018-09-03T15:01:45.730Z,2.06
2018-09-03T15:07:40.718Z,2.09
2018-09-03T15:13:35.727Z,1.7
2018-09-03T15:19:30.723Z,1.74
2018-09-03T15:25:25.781Z,1.74
2018-09-03T15:31:20.720Z,1.93
2018-09-03T15:37:15.754Z,2.07
2018-09-03T15:43:10.817Z,2.39
2018-09-03T15:49:05.891Z,1.86
2018-09-03T15:55:00.764Z,2.27
2018-09-03T16:00:55.749Z,2
2018-09-03T16:06:50.787Z,1.78
2018-09-03T16:12:45.786Z,2.18
2018-09-03T16:18:40.797Z,2.12
2018-09-03T16:24:35.783Z,1.85
2018-09-03T16:30:30.787Z,1.57
2018-09-03T16:36:25.803Z,1.93
2018-09-03T16:42:20.887Z,1.98
2018-09-03T16:48:15.798Z,2.28
2018-09-03T16:54:10.819Z,2.17
2018-09-03T17:00:05.829Z,2.22
2018-09-03T17:06:00.907Z,2.26
2018-09-03T17:11:55.856Z,2.15
2018-09-03T17:17:50.835Z,2.48
2018-09-03T17:23:45.849Z,2.19
2018-09-03T17:29:40.822Z,2.28
2018-09-03T17:35:35.852Z,2.25
2018-09-03T17:41:30.836Z,2.4
2018-09-03T17:47:25.873Z,3.55
2018-09-03T17:53:20.887Z,3.09
2018-09-03T17:59:15.865Z,3.05
2018-09-03T18:05:10.857Z,2.95
2018-09-03T18:11:05.871Z,2.55
2018-09-03T18:17:00.877Z,3.07
2018-09-03T18:22:55.869Z,2.98
2018-09-03T18:28:50.890Z,2.7
2018-09-03T18:34:45.886Z,2.93
2018-09-03T18:40:40.886Z,2.69
2018-09-03T18:46:35.960Z,2.75
2018-09-03T18:52:30.943Z,2.94
2018-09-03T18:58:25.914Z,4.1
2018-09-03T19:04:20.920Z,3.11
2018-09-03T19:10:15.912Z,2.88
2018-09-03T19:16:10.912Z,3.14
2018-09-03T19:22:05.979Z,3.3
2018-09-03T19:28:00.988Z,4.72
2018-09-03T19:33:55.961Z,7.43
2018-09-03T19:39:50.994Z,3.2
2018-09-03T19:45:45.954Z,3.84
2018-09-03T19:51:40.940Z,2.91
2018-09-03T19:57:35.948Z,2.89
2018-09-03T20:03:30.968Z,3.31
2018-09-03T20:09:25.979Z,2.96
2018-09-03T20:15:20.971Z,3.43
2018-09-03T20:21:15.952Z,3.47
2018-09-03T20:27:10.977Z,3.7
2018-09-03T20:33:05.978Z,3.4
2018-09-03T20:39:01.035Z,3.38
2018-09-03T20:44:56.006Z,3.37
2018-09-03T20:50:51.021Z,3.96
2018-09-03T20:56:45.988Z,2.99
2018-09-03T21:02:41.044Z,4.08
2018-09-03T21:08:36.022Z,3.64
2018-09-03T21:14:31.132Z,3.87
2018-09-03T21:20:26.013Z,3.65
2018-09-03T21:26:21.014Z,4.07
2018-09-03T21:32:16.054Z,3.84
2018-09-03T21:38:11.050Z,4.1
2018-09-03T21:44:06.093Z,3.56
2018-09-03T21:50:01.043Z,3.88
2018-09-03T21:55:56.071Z,4.28
2018-09-03T22:01:51.060Z,4.21
2018-09-03T22:07:46.049Z,3.97
2018-09-03T22:13:41.081Z,4.12
2018-09-03T22:19:36.058Z,4.43
2018-09-03T22:25:31.104Z,4.27
2018-09-03T22:31:26.073Z,4.08
2018-09-03T22:37:21.069Z,4.16
2018-09-03T22:43:16.088Z,3.7
2018-09-03T22:49:11.107Z,4.24
2018-09-03T22:55:06.123Z,3.78
2018-09-03T23:01:01.139Z,3.84
2018-09-03T23:06:56.112Z,4.6
2018-09-03T23:12:51.118Z,4.06
2018-09-03T23:18:46.128Z,3.95
2018-09-03T23:24:41.196Z,4.29
2018-09-03T23:30:36.147Z,4.04
2018-09-03T23:36:31.112Z,3.94
2018-09-03T23:42:26.147Z,4.28
2018-09-03T23:48:21.157Z,4.59
2018-09-03T23:54:16.144Z,4.1
